sensor_id;sensor_type;location;lat;lon;timestamp;pressure;altitude;pressure_sealevel;temperature;humidity
75585;BME280;64162;53.508;10.476;2024-02-21T00:02:00;101383.00;;;13.44;64.36
75585;BME280;64162;53.508;10.476;2024-02-21T00:04:27;101388.94;;;12.86;65.92
75585;BME280;64162;53.508;10.476;2024-02-21T00:06:54;101376.53;;;13.48;64.10
75585;BME280;64162;53.508;10.476;2024-02-21T00:09:23;101387.56;;;13.42;63.60
75585;BME280;64162;53.508;10.476;2024-02-21T00:11:50;101391.94;;;12.99;65.76
75585;BME280;64162;53.508;10.476;2024-02-21T00:14:18;101384.28;;;13.40;64.35
75585;BME280;64162;53.508;10.476;2024-02-21T00:16:45;101390.16;;;13.00;65.61
75585;BME280;64162;53.508;10.476;2024-02-21T00:19:11;101379.13;;;13.48;64.21
75585;BME280;64162;53.508;10.476;2024-02-21T00:21:38;101382.78;;;13.21;64.58
75585;BME280;64162;53.508;10.476;2024-02-21T00:24:08;101383.13;;;13.34;65.01
75585;BME280;64162;53.508;10.476;2024-02-21T00:26:35;101376.53;;;12.72;66.52
75585;BME280;64162;53.508;10.476;2024-02-21T00:29:01;101371.13;;;12.99;65.79
75585;BME280;64162;53.508;10.476;2024-02-21T00:31:29;101375.84;;;13.38;64.42
75585;BME280;64162;53.508;10.476;2024-02-21T00:33:56;101363.63;;;13.22;65.43
75585;BME280;64162;53.508;10.476;2024-02-21T00:36:24;101368.81;;;12.88;66.34
75585;BME280;64162;53.508;10.476;2024-02-21T00:38:50;101365.28;;;12.97;65.94
75585;BME280;64162;53.508;10.476;2024-02-21T00:41:17;101361.06;;;13.04;66.65
75585;BME280;64162;53.508;10.476;2024-02-21T00:43:44;101361.25;;;13.69;64.66
75585;BME280;64162;53.508;10.476;2024-02-21T00:46:10;101346.56;;;12.85;67.18
75585;BME280;64162;53.508;10.476;2024-02-21T00:48:40;101349.16;;;13.27;65.93
75585;BME280;64162;53.508;10.476;2024-02-21T00:51:14;101339.66;;;13.10;66.37
75585;BME280;64162;53.508;10.476;2024-02-21T00:53:43;101331.00;;;13.60;64.82
75585;BME280;64162;53.508;10.476;2024-02-21T00:56:10;101337.16;;;12.93;66.46
75585;BME280;64162;53.508;10.476;2024-02-21T00:58:39;101320.97;;;13.07;66.08
75585;BME280;64162;53.508;10.476;2024-02-21T01:01:06;101329.56;;;12.65;67.65
75585;BME280;64162;53.508;10.476;2024-02-21T01:03:39;101326.16;;;13.07;65.97
75585;BME280;64162;53.508;10.476;2024-02-21T01:06:06;101331.97;;;12.93;66.82
75585;BME280;64162;53.508;10.476;2024-02-21T01:08:33;101330.00;;;12.86;67.55
75585;BME280;64162;53.508;10.476;2024-02-21T01:11:00;101304.78;;;12.79;67.23
75585;BME280;64162;53.508;10.476;2024-02-21T01:13:26;101323.22;;;12.68;68.09
75585;BME280;64162;53.508;10.476;2024-02-21T01:15:53;101317.75;;;12.79;67.93
75585;BME280;64162;53.508;10.476;2024-02-21T01:18:20;101303.94;;;12.70;67.62
75585;BME280;64162;53.508;10.476;2024-02-21T01:20:47;101296.75;;;12.64;67.51
75585;BME280;64162;53.508;10.476;2024-02-21T01:23:23;101296.13;;;12.62;67.62
75585;BME280;64162;53.508;10.476;2024-02-21T01:25:50;101305.28;;;12.82;67.45
75585;BME280;64162;53.508;10.476;2024-02-21T01:28:18;101296.00;;;13.22;66.32
75585;BME280;64162;53.508;10.476;2024-02-21T01:30:48;101291.81;;;12.87;67.45
75585;BME280;64162;53.508;10.476;2024-02-21T01:33:14;101295.34;;;13.28;66.11
75585;BME280;64162;53.508;10.476;2024-02-21T01:35:41;101290.31;;;12.42;68.89
75585;BME280;64162;53.508;10.476;2024-02-21T01:38:08;101288.00;;;12.65;67.77
75585;BME280;64162;53.508;10.476;2024-02-21T01:40:34;101280.91;;;12.83;67.53
75585;BME280;64162;53.508;10.476;2024-02-21T01:43:01;101270.00;;;13.38;65.97
75585;BME280;64162;53.508;10.476;2024-02-21T01:45:30;101272.75;;;13.20;66.88
75585;BME280;64162;53.508;10.476;2024-02-21T01:47:56;101265.97;;;12.85;68.39
75585;BME280;64162;53.508;10.476;2024-02-21T01:50:23;101261.19;;;13.15;67.36
75585;BME280;64162;53.508;10.476;2024-02-21T01:52:50;101268.16;;;12.56;68.77
75585;BME280;64162;53.508;10.476;2024-02-21T01:55:20;101257.06;;;13.04;68.06
75585;BME280;64162;53.508;10.476;2024-02-21T01:57:48;101241.81;;;13.01;67.33
75585;BME280;64162;53.508;10.476;2024-02-21T02:00:15;101238.22;;;12.86;67.89
75585;BME280;64162;53.508;10.476;2024-02-21T02:02:42;101249.69;;;13.42;66.26
75585;BME280;64162;53.508;10.476;2024-02-21T02:05:10;101248.31;;;12.47;68.98
75585;BME280;64162;53.508;10.476;2024-02-21T02:07:37;101229.78;;;13.08;67.30
75585;BME280;64162;53.508;10.476;2024-02-21T02:10:04;101232.78;;;12.63;69.18
75585;BME280;64162;53.508;10.476;2024-02-21T02:12:31;101224.47;;;12.60;69.55
75585;BME280;64162;53.508;10.476;2024-02-21T02:15:03;101221.59;;;12.79;69.01
75585;BME280;64162;53.508;10.476;2024-02-21T02:17:31;101218.41;;;13.01;68.62
75585;BME280;64162;53.508;10.476;2024-02-21T02:20:00;101206.25;;;12.43;69.98
75585;BME280;64162;53.508;10.476;2024-02-21T02:22:28;101214.28;;;12.74;69.65
75585;BME280;64162;53.508;10.476;2024-02-21T02:24:55;101194.41;;;13.31;67.16
75585;BME280;64162;53.508;10.476;2024-02-21T02:27:22;101195.16;;;13.00;68.05
75585;BME280;64162;53.508;10.476;2024-02-21T02:29:49;101197.50;;;12.53;70.20
75585;BME280;64162;53.508;10.476;2024-02-21T02:32:16;101180.06;;;12.95;68.52
75585;BME280;64162;53.508;10.476;2024-02-21T02:34:42;101185.31;;;12.53;69.09
75585;BME280;64162;53.508;10.476;2024-02-21T02:37:12;101157.97;;;12.91;68.62
75585;BME280;64162;53.508;10.476;2024-02-21T02:39:39;101174.66;;;12.64;69.77
75585;BME280;64162;53.508;10.476;2024-02-21T02:42:05;101146.25;;;12.95;68.83
75585;BME280;64162;53.508;10.476;2024-02-21T02:44:32;101134.22;;;12.78;68.83
75585;BME280;64162;53.508;10.476;2024-02-21T02:46:59;101106.09;;;13.93;65.65
75585;BME280;64162;53.508;10.476;2024-02-21T02:53:39;101098.16;;;12.51;69.61
75585;BME280;64162;53.508;10.476;2024-02-21T02:56:06;101088.59;;;13.32;67.29
75585;BME280;64162;53.508;10.476;2024-02-21T02:58:38;101091.38;;;12.82;68.61
75585;BME280;64162;53.508;10.476;2024-02-21T03:01:06;101098.19;;;12.75;69.59
75585;BME280;64162;53.508;10.476;2024-02-21T03:03:33;101094.09;;;12.88;68.97
75585;BME280;64162;53.508;10.476;2024-02-21T03:05:59;101095.56;;;12.59;69.69
75585;BME280;64162;53.508;10.476;2024-02-21T03:08:27;101080.47;;;12.62;69.46
75585;BME280;64162;53.508;10.476;2024-02-21T03:10:53;101078.69;;;12.87;68.14
75585;BME280;64162;53.508;10.476;2024-02-21T03:13:20;101073.34;;;12.80;68.22
75585;BME280;64162;53.508;10.476;2024-02-21T03:15:47;101096.56;;;12.82;68.18
75585;BME280;64162;53.508;10.476;2024-02-21T03:18:16;101122.53;;;12.98;67.95
75585;BME280;64162;53.508;10.476;2024-02-21T03:20:42;101117.78;;;13.66;65.42
75585;BME280;64162;53.508;10.476;2024-02-21T03:23:09;101117.38;;;13.14;67.44
75585;BME280;64162;53.508;10.476;2024-02-21T03:25:38;101108.41;;;13.01;68.03
75585;BME280;64162;53.508;10.476;2024-02-21T03:28:05;101103.53;;;13.06;67.27
75585;BME280;64162;53.508;10.476;2024-02-21T03:30:32;101112.97;;;13.15;67.33
75585;BME280;64162;53.508;10.476;2024-02-21T03:33:00;101112.97;;;12.82;67.63
75585;BME280;64162;53.508;10.476;2024-02-21T03:35:30;101121.50;;;12.34;69.59
75585;BME280;64162;53.508;10.476;2024-02-21T03:37:57;101127.84;;;12.48;68.65
75585;BME280;64162;53.508;10.476;2024-02-21T03:40:23;101124.66;;;12.70;67.94
75585;BME280;64162;53.508;10.476;2024-02-21T03:42:50;101133.78;;;13.07;66.94
75585;BME280;64162;53.508;10.476;2024-02-21T03:45:19;101120.13;;;13.13;67.25
75585;BME280;64162;53.508;10.476;2024-02-21T03:47:46;101127.91;;;13.05;66.37
75585;BME280;64162;53.508;10.476;2024-02-21T03:50:13;101131.94;;;12.83;67.93
75585;BME280;64162;53.508;10.476;2024-02-21T03:52:39;101121.88;;;13.04;67.15
75585;BME280;64162;53.508;10.476;2024-02-21T03:55:08;101130.16;;;12.83;67.81
75585;BME280;64162;53.508;10.476;2024-02-21T03:57:35;101112.31;;;13.37;66.06
75585;BME280;64162;53.508;10.476;2024-02-21T04:00:02;101129.53;;;13.38;66.00
75585;BME280;64162;53.508;10.476;2024-02-21T04:02:32;101115.09;;;13.27;66.31
75585;BME280;64162;53.508;10.476;2024-02-21T04:04:59;101122.88;;;13.19;66.13
75585;BME280;64162;53.508;10.476;2024-02-21T04:07:26;101124.81;;;13.01;66.76
75585;BME280;64162;53.508;10.476;2024-02-21T04:09:53;101119.28;;;13.04;66.06
75585;BME280;64162;53.508;10.476;2024-02-21T04:12:20;101122.22;;;13.01;66.81
75585;BME280;64162;53.508;10.476;2024-02-21T04:14:53;101111.81;;;12.85;67.36
75585;BME280;64162;53.508;10.476;2024-02-21T04:17:20;101107.25;;;12.79;67.71
75585;BME280;64162;53.508;10.476;2024-02-21T04:19:47;101098.50;;;13.28;66.09
75585;BME280;64162;53.508;10.476;2024-02-21T04:22:13;101095.59;;;13.31;66.17
75585;BME280;64162;53.508;10.476;2024-02-21T04:24:40;101096.41;;;12.92;66.99
75585;BME280;64162;53.508;10.476;2024-02-21T04:27:07;101096.19;;;12.53;68.65
75585;BME280;64162;53.508;10.476;2024-02-21T04:29:36;101084.53;;;12.97;67.26
75585;BME280;64162;53.508;10.476;2024-02-21T04:32:09;101088.59;;;12.67;68.19
75585;BME280;64162;53.508;10.476;2024-02-21T04:34:36;101076.38;;;13.41;66.71
75585;BME280;64162;53.508;10.476;2024-02-21T04:37:03;101069.72;;;12.98;67.99
75585;BME280;64162;53.508;10.476;2024-02-21T04:39:30;101067.31;;;12.88;68.44
75585;BME280;64162;53.508;10.476;2024-02-21T04:41:57;101069.75;;;12.57;69.30
75585;BME280;64162;53.508;10.476;2024-02-21T04:44:24;101064.69;;;13.04;68.15
75585;BME280;64162;53.508;10.476;2024-02-21T04:46:50;101060.50;;;13.11;67.12
75585;BME280;64162;53.508;10.476;2024-02-21T04:49:21;101069.91;;;12.56;69.59
75585;BME280;64162;53.508;10.476;2024-02-21T04:51:47;101071.81;;;13.35;67.27
75585;BME280;64162;53.508;10.476;2024-02-21T04:54:14;101050.38;;;13.08;67.80
75585;BME280;64162;53.508;10.476;2024-02-21T04:56:41;101074.78;;;12.75;68.34
75585;BME280;64162;53.508;10.476;2024-02-21T04:59:08;101065.69;;;12.63;69.39
75585;BME280;64162;53.508;10.476;2024-02-21T05:01:34;101072.50;;;13.04;67.71
75585;BME280;64162;53.508;10.476;2024-02-21T05:04:01;101067.31;;;12.88;67.91
75585;BME280;64162;53.508;10.476;2024-02-21T05:06:37;101068.28;;;13.03;67.61
75585;BME280;64162;53.508;10.476;2024-02-21T05:09:06;101070.72;;;12.56;68.72
75585;BME280;64162;53.508;10.476;2024-02-21T05:11:41;101063.72;;;13.05;67.27
75585;BME280;64162;53.508;10.476;2024-02-21T05:14:08;101070.56;;;12.66;69.34
75585;BME280;64162;53.508;10.476;2024-02-21T05:16:35;101059.19;;;12.75;69.98
75585;BME280;64162;53.508;10.476;2024-02-21T05:19:04;101068.13;;;12.80;69.20
75585;BME280;64162;53.508;10.476;2024-02-21T05:21:34;101069.91;;;12.56;70.38
75585;BME280;64162;53.508;10.476;2024-02-21T05:24:03;101072.66;;;12.78;69.68
75585;BME280;64162;53.508;10.476;2024-02-21T05:26:30;101078.50;;;12.64;70.07
75585;BME280;64162;53.508;10.476;2024-02-21T05:28:56;101066.97;;;12.59;70.47
75585;BME280;64162;53.508;10.476;2024-02-21T05:31:23;101066.84;;;12.93;69.04
75585;BME280;64162;53.508;10.476;2024-02-21T05:33:50;101071.88;;;12.86;68.78
75585;BME280;64162;53.508;10.476;2024-02-21T05:36:19;101063.09;;;13.19;68.14
75585;BME280;64162;53.508;10.476;2024-02-21T05:38:46;101056.44;;;12.60;70.28
75585;BME280;64162;53.508;10.476;2024-02-21T05:41:15;101045.72;;;12.47;69.88
75585;BME280;64162;53.508;10.476;2024-02-21T05:43:41;101052.63;;;12.22;71.81
75585;BME280;64162;53.508;10.476;2024-02-21T05:46:08;101047.97;;;12.34;70.95
75585;BME280;64162;53.508;10.476;2024-02-21T05:48:34;101049.09;;;13.04;68.88
75585;BME280;64162;53.508;10.476;2024-02-21T05:51:02;101042.63;;;12.52;70.97
75585;BME280;64162;53.508;10.476;2024-02-21T05:53:29;101052.88;;;12.77;69.78
75585;BME280;64162;53.508;10.476;2024-02-21T05:56:00;101043.25;;;13.26;68.20
75585;BME280;64162;53.508;10.476;2024-02-21T05:58:27;101058.53;;;12.73;69.67
75585;BME280;64162;53.508;10.476;2024-02-21T06:00:54;101052.84;;;12.94;69.54
75585;BME280;64162;53.508;10.476;2024-02-21T06:03:21;101058.22;;;12.68;71.06
75585;BME280;64162;53.508;10.476;2024-02-21T06:06:00;101049.44;;;12.36;71.11
75585;BME280;64162;53.508;10.476;2024-02-21T06:08:27;101062.44;;;12.44;71.01
75585;BME280;64162;53.508;10.476;2024-02-21T06:10:53;101048.56;;;13.33;68.56
75585;BME280;64162;53.508;10.476;2024-02-21T06:13:21;101055.94;;;13.05;69.57
75585;BME280;64162;53.508;10.476;2024-02-21T06:15:48;101067.97;;;13.06;69.22
75585;BME280;64162;53.508;10.476;2024-02-21T06:18:17;101060.44;;;13.36;68.14
75585;BME280;64162;53.508;10.476;2024-02-21T06:20:44;101073.81;;;12.92;69.29
75585;BME280;64162;53.508;10.476;2024-02-21T06:23:13;101066.34;;;12.97;69.83
75585;BME280;64162;53.508;10.476;2024-02-21T06:25:40;101061.28;;;13.28;68.29
75585;BME280;64162;53.508;10.476;2024-02-21T06:28:06;101076.88;;;12.63;70.82
75585;BME280;64162;53.508;10.476;2024-02-21T06:30:33;101061.16;;;12.97;69.45
75585;BME280;64162;53.508;10.476;2024-02-21T06:33:00;101057.31;;;13.48;67.78
75585;BME280;64162;53.508;10.476;2024-02-21T06:35:27;101067.66;;;13.17;68.82
75585;BME280;64162;53.508;10.476;2024-02-21T06:38:01;101059.75;;;13.50;67.70
75585;BME280;64162;53.508;10.476;2024-02-21T06:40:31;101071.88;;;12.86;69.98
75585;BME280;64162;53.508;10.476;2024-02-21T06:43:05;101073.34;;;12.80;70.13
75585;BME280;64162;53.508;10.476;2024-02-21T06:45:31;101068.44;;;13.10;69.71
75585;BME280;64162;53.508;10.476;2024-02-21T06:48:02;101059.19;;;12.91;69.19
75585;BME280;64162;53.508;10.476;2024-02-21T06:50:34;101061.06;;;13.46;68.25
75585;BME280;64162;53.508;10.476;2024-02-21T06:53:01;101070.41;;;12.92;69.72
75585;BME280;64162;53.508;10.476;2024-02-21T06:55:27;101060.00;;;13.71;67.61
75585;BME280;64162;53.508;10.476;2024-02-21T06:57:54;101072.19;;;12.91;70.39
75585;BME280;64162;53.508;10.476;2024-02-21T07:00:21;101063.09;;;13.11;69.31
75585;BME280;64162;53.508;10.476;2024-02-21T07:02:49;101063.22;;;13.10;69.24
75585;BME280;64162;53.508;10.476;2024-02-21T07:05:16;101066.66;;;12.70;70.98
75585;BME280;64162;53.508;10.476;2024-02-21T07:07:42;101071.50;;;13.38;68.42
75585;BME280;64162;53.508;10.476;2024-02-21T07:10:09;101079.63;;;13.43;68.55
75585;BME280;64162;53.508;10.476;2024-02-21T07:12:37;101070.41;;;12.75;69.83
75585;BME280;64162;53.508;10.476;2024-02-21T07:15:10;101074.97;;;13.22;69.52
75585;BME280;64162;53.508;10.476;2024-02-21T07:17:36;101066.44;;;13.44;68.50
75585;BME280;64162;53.508;10.476;2024-02-21T07:20:03;101084.38;;;13.07;69.70
75585;BME280;64162;53.508;10.476;2024-02-21T07:22:30;101084.84;;;12.94;69.93
75585;BME280;64162;53.508;10.476;2024-02-21T07:24:57;101068.94;;;13.05;69.79
75585;BME280;64162;53.508;10.476;2024-02-21T07:27:30;101070.19;;;13.42;68.18
75585;BME280;64162;53.508;10.476;2024-02-21T07:30:00;101078.31;;;13.39;69.28
75585;BME280;64162;53.508;10.476;2024-02-21T07:32:27;101076.88;;;13.83;67.46
75585;BME280;64162;53.508;10.476;2024-02-21T07:34:54;101080.88;;;13.55;67.88
75585;BME280;64162;53.508;10.476;2024-02-21T07:37:24;101091.59;;;13.60;67.87
75585;BME280;64162;53.508;10.476;2024-02-21T07:39:50;101085.19;;;13.79;67.10
75585;BME280;64162;53.508;10.476;2024-02-21T07:42:17;101103.34;;;13.40;68.71
75585;BME280;64162;53.508;10.476;2024-02-21T07:44:45;101089.00;;;13.68;67.70
75585;BME280;64162;53.508;10.476;2024-02-21T07:47:12;101080.41;;;13.90;66.94
75585;BME280;64162;53.508;10.476;2024-02-21T07:49:47;101081.28;;;13.27;68.60
75585;BME280;64162;53.508;10.476;2024-02-21T07:52:16;101088.88;;;13.45;68.78
75585;BME280;64162;53.508;10.476;2024-02-21T07:54:46;101087.47;;;13.82;67.62
75585;BME280;64162;53.508;10.476;2024-02-21T07:57:15;101090.38;;;13.23;68.71
75585;BME280;64162;53.508;10.476;2024-02-21T07:59:42;101097.72;;;13.12;69.41
75585;BME280;64162;53.508;10.476;2024-02-21T08:02:09;101097.66;;;13.44;68.68
75585;BME280;64162;53.508;10.476;2024-02-21T08:04:38;101087.97;;;13.69;67.90
75585;BME280;64162;53.508;10.476;2024-02-21T08:07:05;101091.00;;;13.42;68.80
75585;BME280;64162;53.508;10.476;2024-02-21T08:09:31;101083.50;;;13.47;67.99
75585;BME280;64162;53.508;10.476;2024-02-21T08:12:04;101079.91;;;13.56;68.95
75585;BME280;64162;53.508;10.476;2024-02-21T08:14:33;101095.59;;;13.07;70.29
75585;BME280;64162;53.508;10.476;2024-02-21T08:17:00;101084.69;;;13.20;69.96
75585;BME280;64162;53.508;10.476;2024-02-21T08:19:30;101086.47;;;13.36;69.04
75585;BME280;64162;53.508;10.476;2024-02-21T08:21:56;101095.59;;;13.79;67.83
75585;BME280;64162;53.508;10.476;2024-02-21T08:24:23;101078.66;;;13.03;70.52
75585;BME280;64162;53.508;10.476;2024-02-21T08:26:53;101074.31;;;12.87;69.93
75585;BME280;64162;53.508;10.476;2024-02-21T08:29:20;101075.13;;;13.20;69.23
75585;BME280;64162;53.508;10.476;2024-02-21T08:31:46;101079.13;;;13.47;69.07
75585;BME280;64162;53.508;10.476;2024-02-21T08:34:13;101086.09;;;14.25;66.83
75585;BME280;64162;53.508;10.476;2024-02-21T08:36:40;101068.81;;;14.01;67.10
75585;BME280;64162;53.508;10.476;2024-02-21T08:39:06;101063.88;;;13.36;69.25
75585;BME280;64162;53.508;10.476;2024-02-21T08:41:37;101067.97;;;13.22;70.12
75585;BME280;64162;53.508;10.476;2024-02-21T08:44:11;101054.56;;;13.50;69.26
75585;BME280;64162;53.508;10.476;2024-02-21T08:46:39;101049.69;;;13.47;69.20
75585;BME280;64162;53.508;10.476;2024-02-21T08:49:12;101049.69;;;13.86;67.34
75585;BME280;64162;53.508;10.476;2024-02-21T08:51:42;101047.75;;;13.88;67.63
75585;BME280;64162;53.508;10.476;2024-02-21T08:54:09;101040.47;;;13.75;68.25
75585;BME280;64162;53.508;10.476;2024-02-21T08:56:36;101041.72;;;13.87;67.58
75585;BME280;64162;53.508;10.476;2024-02-21T08:59:03;101044.22;;;13.25;69.91
75585;BME280;64162;53.508;10.476;2024-02-21T09:01:30;101042.59;;;13.00;70.94
75585;BME280;64162;53.508;10.476;2024-02-21T09:04:00;101057.16;;;13.58;68.57
75585;BME280;64162;53.508;10.476;2024-02-21T09:06:29;101055.94;;;13.77;68.21
75585;BME280;64162;53.508;10.476;2024-02-21T09:08:57;101050.09;;;13.27;69.86
75585;BME280;64162;53.508;10.476;2024-02-21T09:11:24;101070.06;;;13.74;67.86
75585;BME280;64162;53.508;10.476;2024-02-21T09:13:51;101072.34;;;13.77;67.62
75585;BME280;64162;53.508;10.476;2024-02-21T09:16:17;101076.72;;;13.38;68.82
75585;BME280;64162;53.508;10.476;2024-02-21T09:18:44;101061.34;;;13.67;68.05
75585;BME280;64162;53.508;10.476;2024-02-21T09:21:11;101063.59;;;14.32;66.41
75585;BME280;64162;53.508;10.476;2024-02-21T09:23:37;101068.34;;;13.58;68.53
75585;BME280;64162;53.508;10.476;2024-02-21T09:26:07;101065.56;;;13.99;67.42
75585;BME280;64162;53.508;10.476;2024-02-21T09:28:37;101059.66;;;14.13;67.28
75585;BME280;64162;53.508;10.476;2024-02-21T09:31:04;101058.16;;;13.88;68.14
75585;BME280;64162;53.508;10.476;2024-02-21T09:33:31;101072.44;;;13.45;68.70
75585;BME280;64162;53.508;10.476;2024-02-21T09:35:58;101065.88;;;13.73;67.00
75585;BME280;64162;53.508;10.476;2024-02-21T09:38:25;101077.16;;;13.96;66.65
75585;BME280;64162;53.508;10.476;2024-02-21T09:40:59;101054.78;;;14.41;66.16
75585;BME280;64162;53.508;10.476;2024-02-21T09:43:28;101065.06;;;13.72;66.98
75585;BME280;64162;53.508;10.476;2024-02-21T09:45:55;101066.22;;;14.32;65.95
75585;BME280;64162;53.508;10.476;2024-02-21T09:51:34;101055.19;;;14.22;65.88
75585;BME280;64162;53.508;10.476;2024-02-21T09:54:04;101056.63;;;13.93;67.00
75585;BME280;64162;53.508;10.476;2024-02-21T09:56:36;101052.31;;;14.16;66.35
75585;BME280;64162;53.508;10.476;2024-02-21T09:59:03;101061.06;;;14.92;63.96
75585;BME280;64162;53.508;10.476;2024-02-21T10:01:33;101034.09;;;14.08;65.94
75585;BME280;64162;53.508;10.476;2024-02-21T10:03:59;101052.47;;;13.84;66.59
75585;BME280;64162;53.508;10.476;2024-02-21T10:06:26;101052.59;;;14.22;66.11
75585;BME280;64162;53.508;10.476;2024-02-21T10:08:53;101053.16;;;14.40;65.62
75585;BME280;64162;53.508;10.476;2024-02-21T10:11:26;101040.06;;;14.48;65.78
75585;BME280;64162;53.508;10.476;2024-02-21T10:14:06;101058.19;;;13.80;67.25
75585;BME280;64162;53.508;10.476;2024-02-21T10:16:33;101051.13;;;13.96;67.17
75585;BME280;64162;53.508;10.476;2024-02-21T10:19:00;101056.38;;;13.41;68.75
75585;BME280;64162;53.508;10.476;2024-02-21T10:21:27;101056.75;;;13.77;67.56
75585;BME280;64162;53.508;10.476;2024-02-21T10:23:54;101056.53;;;14.17;66.98
75585;BME280;64162;53.508;10.476;2024-02-21T10:26:21;101046.16;;;13.31;69.28
75585;BME280;64162;53.508;10.476;2024-02-21T10:28:48;101051.50;;;13.85;67.48
75585;BME280;64162;53.508;10.476;2024-02-21T10:31:28;101050.94;;;13.59;69.15
75585;BME280;64162;53.508;10.476;2024-02-21T10:33:55;101049.25;;;13.74;68.13
75585;BME280;64162;53.508;10.476;2024-02-21T10:36:23;101040.56;;;13.51;69.18
75585;BME280;64162;53.508;10.476;2024-02-21T10:38:51;101035.13;;;13.68;68.56
75585;BME280;64162;53.508;10.476;2024-02-21T10:41:19;101043.31;;;13.88;68.56
75585;BME280;64162;53.508;10.476;2024-02-21T10:43:50;101031.78;;;13.52;69.15
75585;BME280;64162;53.508;10.476;2024-02-21T10:46:27;101035.19;;;13.91;68.25
75585;BME280;64162;53.508;10.476;2024-02-21T10:49:02;101036.31;;;13.97;67.35
75585;BME280;64162;53.508;10.476;2024-02-21T10:51:33;101025.63;;;13.45;68.86
75585;BME280;64162;53.508;10.476;2024-02-21T10:54:36;101013.13;;;13.79;68.75
75585;BME280;64162;53.508;10.476;2024-02-21T10:57:06;101016.84;;;13.46;69.34
75585;BME280;64162;53.508;10.476;2024-02-21T10:59:37;101014.91;;;13.79;68.30
75585;BME280;64162;53.508;10.476;2024-02-21T11:02:06;101020.31;;;13.77;68.29
75585;BME280;64162;53.508;10.476;2024-02-21T11:04:34;101003.28;;;13.97;66.96
75585;BME280;64162;53.508;10.476;2024-02-21T11:07:04;101002.97;;;13.14;69.89
75585;BME280;64162;53.508;10.476;2024-02-21T11:09:34;101003.72;;;14.24;66.98
75585;BME280;64162;53.508;10.476;2024-02-21T11:12:03;100994.19;;;13.62;68.24
75585;BME280;64162;53.508;10.476;2024-02-21T11:14:31;100990.59;;;13.63;68.54
75585;BME280;64162;53.508;10.476;2024-02-21T11:17:15;100999.94;;;13.81;67.92
75585;BME280;64162;53.508;10.476;2024-02-21T11:19:42;100997.19;;;13.74;68.15
75585;BME280;64162;53.508;10.476;2024-02-21T11:22:16;100997.97;;;13.52;69.25
75585;BME280;64162;53.508;10.476;2024-02-21T11:24:44;100999.66;;;13.98;67.42
75585;BME280;64162;53.508;10.476;2024-02-21T11:27:20;100996.28;;;13.98;67.21
75585;BME280;64162;53.508;10.476;2024-02-21T11:29:49;100995.75;;;13.71;67.61
75585;BME280;64162;53.508;10.476;2024-02-21T11:32:20;100993.03;;;14.18;67.12
75585;BME280;64162;53.508;10.476;2024-02-21T11:35:03;100982.84;;;14.09;66.63
75585;BME280;64162;53.508;10.476;2024-02-21T11:37:32;100977.16;;;13.52;67.96
75585;BME280;64162;53.508;10.476;2024-02-21T11:40:05;100987.13;;;14.02;66.50
75585;BME280;64162;53.508;10.476;2024-02-21T11:42:37;100982.88;;;14.24;66.04
75585;BME280;64162;53.508;10.476;2024-02-21T11:45:06;100967.78;;;13.35;67.73
75585;BME280;64162;53.508;10.476;2024-02-21T11:47:35;100976.28;;;14.36;65.33
75585;BME280;64162;53.508;10.476;2024-02-21T11:50:09;100973.38;;;13.15;68.88
75585;BME280;64162;53.508;10.476;2024-02-21T11:52:36;100966.06;;;14.11;66.54
75585;BME280;64162;53.508;10.476;2024-02-21T11:55:05;100949.50;;;13.82;66.72
75585;BME280;64162;53.508;10.476;2024-02-21T11:57:37;100957.56;;;13.64;67.25
75585;BME280;64162;53.508;10.476;2024-02-21T12:00:14;100937.69;;;13.71;66.40
75585;BME280;64162;53.508;10.476;2024-02-21T12:02:42;100943.34;;;13.44;67.30
75585;BME280;64162;53.508;10.476;2024-02-21T12:05:09;100945.25;;;14.11;65.58
75585;BME280;64162;53.508;10.476;2024-02-21T12:07:37;100943.16;;;13.22;68.00
75585;BME280;64162;53.508;10.476;2024-02-21T12:10:13;100954.78;;;13.43;67.35
75585;BME280;64162;53.508;10.476;2024-02-21T12:12:40;100930.53;;;12.95;68.03
75585;BME280;64162;53.508;10.476;2024-02-21T12:15:08;100943.16;;;13.22;67.46
75585;BME280;64162;53.508;10.476;2024-02-21T12:17:39;100931.25;;;13.28;67.29
75585;BME280;64162;53.508;10.476;2024-02-21T12:20:12;100921.28;;;13.40;67.54
75585;BME280;64162;53.508;10.476;2024-02-21T12:22:39;100932.41;;;13.87;66.41
75585;BME280;64162;53.508;10.476;2024-02-21T12:25:35;100923.00;;;13.16;67.71
75585;BME280;64162;53.508;10.476;2024-02-21T12:28:02;100922.16;;;13.63;66.64
75585;BME280;64162;53.508;10.476;2024-02-21T12:30:30;100934.34;;;13.23;67.31
75585;BME280;64162;53.508;10.476;2024-02-21T12:32:59;100913.19;;;14.11;65.65
75585;BME280;64162;53.508;10.476;2024-02-21T12:35:29;100932.59;;;14.46;66.01
75585;BME280;64162;53.508;10.476;2024-02-21T12:38:01;100929.81;;;14.25;64.69
75585;BME280;64162;53.508;10.476;2024-02-21T12:40:30;100927.16;;;13.64;65.75
75585;BME280;64162;53.508;10.476;2024-02-21T12:43:00;100913.41;;;13.09;67.77
75585;BME280;64162;53.508;10.476;2024-02-21T12:45:30;100916.44;;;13.28;68.13
75585;BME280;64162;53.508;10.476;2024-02-21T12:47:56;100905.41;;;13.26;67.98
75585;BME280;64162;53.508;10.476;2024-02-21T12:50:25;100906.84;;;13.60;66.49
75585;BME280;64162;53.508;10.476;2024-02-21T12:52:52;100902.84;;;13.18;67.32
75585;BME280;64162;53.508;10.476;2024-02-21T12:55:19;100910.25;;;13.38;66.94